createdAt,value
2018-12-02T05:01:14.460Z,0.60
2018-12-02T05:03:42.593Z,0.60
2018-12-02T05:06:10.657Z,0.43
2018-12-02T05:08:38.735Z,0.83
2018-12-02T05:11:06.828Z,0.80
2018-12-02T05:13:34.896Z,1.30
2018-12-02T05:16:02.974Z,1.40
2018-12-02T05:18:31.045Z,1.60
2018-12-02T05:20:59.118Z,1.90
2018-12-02T05:23:27.187Z,1.50
2018-12-02T05:25:55.256Z,1.80
2018-12-02T05:28:23.320Z,1.30
2018-12-02T05:30:51.411Z,1.50
2018-12-02T05:33:20.521Z,1.30
2018-12-02T05:35:48.595Z,1.60
2018-12-02T05:38:16.656Z,1.30
2018-12-02T05:40:44.735Z,1.13
2018-12-02T05:43:12.812Z,1.30
2018-12-02T05:45:40.880Z,1.30
2018-12-02T05:48:08.947Z,1.47
2018-12-02T05:50:37.019Z,1.30
2018-12-02T05:53:05.092Z,1.60
2018-12-02T05:55:35.244Z,1.20
2018-12-02T05:58:03.369Z,1.60
2018-12-02T06:00:31.439Z,1.23
2018-12-02T06:02:59.524Z,1.55
2018-12-02T06:05:27.590Z,1.60
2018-12-02T06:07:55.665Z,1.70
2018-12-02T06:10:23.805Z,1.40
2018-12-02T06:12:53.584Z,1.42
2018-12-02T06:15:21.759Z,1.67
2018-12-02T06:17:49.999Z,1.60
2018-12-02T06:20:24.828Z,1.60
2018-12-02T06:22:54.711Z,1.30
2018-12-02T06:25:22.787Z,1.30
2018-12-02T06:27:51.296Z,1.67
2018-12-02T06:30:20.284Z,1.40
2018-12-02T06:32:49.648Z,1.90
2018-12-02T06:35:17.717Z,1.83
2018-12-02T06:37:45.803Z,1.70
2018-12-02T06:40:17.852Z,1.77
2018-12-02T06:42:45.920Z,1.87
2018-12-02T06:45:14.312Z,1.23
2018-12-02T06:47:42.497Z,0.90
2018-12-02T06:50:11.988Z,0.60
2018-12-02T06:52:40.074Z,0.93
2018-12-02T06:55:12.223Z,1.40
2018-12-02T06:57:40.604Z,1.10
2018-12-02T07:02:56.345Z,1.60
2018-12-02T07:05:26.227Z,1.20
2018-12-02T07:07:54.327Z,1.50
2018-12-02T07:10:22.407Z,1.30
2018-12-02T07:12:50.852Z,1.07
2018-12-02T07:15:18.937Z,0.43
2018-12-02T07:17:47.051Z,0.30
2018-12-02T07:20:15.123Z,0.30
2018-12-02T07:22:43.207Z,0.20
2018-12-02T07:25:11.292Z,0.23
2018-12-02T07:27:39.356Z,0.30
2018-12-02T07:30:09.412Z,0.30
2018-12-02T07:32:38.576Z,0.23
2018-12-02T07:35:08.376Z,0.28
